Time;durP1;ratioP1;P1;durP2;ratioP2;P2;SDS_P1;SDS_P2;PMS_P1;PMS_P2;Temp;Humidity;BMP_temperature;BMP_pressure;BME280_temperature;BME280_humidity;BME280_pressure;Samples;Min_cycle;Max_cycle;Signal;HPM_P1;HPM_P2
2020/12/23 00:02:00;;;;;;;20.98;13.85;;;;;;;;;;5096006;28;20050;-71
2020/12/23 00:04:27;;;;;;;22.02;13.02;;;;;;;;;;5114342;28;20031;-70
2020/12/23 00:06:53;;;;;;;20.30;13.02;;;;;;;;;;5114243;28;20022;-70
2020/12/23 00:09:19;;;;;;;20.73;12.65;;;;;;;;;;5114100;28;20107;-70
2020/12/23 00:11:45;;;;;;;17.73;11.77;;;;;;;;;;5114242;28;20027;-70
2020/12/23 00:14:11;;;;;;;22.27;13.38;;;;;;;;;;5114169;28;20386;-71
2020/12/23 00:16:38;;;;;;;19.23;12.50;;;;;;;;;;5114003;28;20019;-71
2020/12/23 00:19:04;;;;;;;17.48;12.70;;;;;;;;;;5095840;28;20031;-71
2020/12/23 00:21:32;;;;;;;19.55;12.93;;;;;;;;;;5114180;28;20421;-71
2020/12/23 00:23:59;;;;;;;19.48;12.48;;;;;;;;;;5114027;28;20076;-71
2020/12/23 00:26:25;;;;;;;18.67;12.35;;;;;;;;;;5113891;28;20089;-70
2020/12/23 00:28:51;;;;;;;17.38;11.75;;;;;;;;;;5113782;28;20043;-70
2020/12/23 00:31:17;;;;;;;17.23;12.10;;;;;;;;;;5113782;28;20074;-75
2020/12/23 00:33:44;;;;;;;20.35;12.65;;;;;;;;;;5095484;28;20474;-70
2020/12/23 00:36:15;;;;;;;17.83;12.25;;;;;;;;;;5113668;28;20032;-70
2020/12/23 00:38:42;;;;;;;17.67;11.48;;;;;;;;;;5095427;28;20028;-70
2020/12/23 00:41:11;;;;;;;16.00;11.18;;;;;;;;;;5113484;28;20499;-72
2020/12/23 00:43:37;;;;;;;18.83;11.00;;;;;;;;;;5113453;28;20024;-71
2020/12/23 00:46:03;;;;;;;17.42;12.10;;;;;;;;;;5113474;28;20019;-71
2020/12/23 00:48:29;;;;;;;17.38;12.10;;;;;;;;;;5113411;28;20391;-71
2020/12/23 00:50:55;;;;;;;16.55;11.45;;;;;;;;;;5113037;28;20036;-72
2020/12/23 00:53:22;;;;;;;18.80;12.07;;;;;;;;;;5112866;28;20019;-71
2020/12/23 00:55:50;;;;;;;14.68;10.98;;;;;;;;;;5094875;28;20100;-71
2020/12/23 00:58:16;;;;;;;17.95;12.25;;;;;;;;;;5094833;28;20087;-71
2020/12/23 01:00:42;;;;;;;17.50;12.15;;;;;;;;;;5113196;28;20360;-71
2020/12/23 01:03:08;;;;;;;16.67;11.35;;;;;;;;;;5113188;28;20024;-70
2020/12/23 01:05:34;;;;;;;20.05;12.57;;;;;;;;;;5113116;28;20678;-70
2020/12/23 01:08:00;;;;;;;16.55;11.77;;;;;;;;;;5113055;28;20504;-70
2020/12/23 01:10:26;;;;;;;14.63;10.52;;;;;;;;;;5094665;28;20662;-70
2020/12/23 01:12:52;;;;;;;17.65;12.40;;;;;;;;;;5094707;28;20027;-71
2020/12/23 01:15:19;;;;;;;17.83;12.25;;;;;;;;;;5112918;28;20030;-71
2020/12/23 01:17:45;;;;;;;16.17;11.63;;;;;;;;;;5095083;28;20497;-71
2020/12/23 01:20:11;;;;;;;15.82;11.00;;;;;;;;;;5113019;28;20600;-70
2020/12/23 01:22:37;;;;;;;18.20;12.27;;;;;;;;;;5112878;28;20541;-71
2020/12/23 01:25:03;;;;;;;16.17;11.63;;;;;;;;;;5112816;28;20493;-70
2020/12/23 01:27:29;;;;;;;16.80;11.20;;;;;;;;;;5112357;28;20047;-70
2020/12/23 01:29:55;;;;;;;16.85;11.63;;;;;;;;;;5094242;28;20059;-70
2020/12/23 01:32:21;;;;;;;16.80;11.70;;;;;;;;;;5094323;28;20019;-70
2020/12/23 01:34:47;;;;;;;17.83;11.35;;;;;;;;;;5112515;28;20016;-71
2020/12/23 01:37:13;;;;;;;15.85;11.55;;;;;;;;;;5112638;28;20022;-71
2020/12/23 01:39:39;;;;;;;15.15;11.05;;;;;;;;;;5110440;28;20466;-70
2020/12/23 01:42:05;;;;;;;16.05;10.82;;;;;;;;;;5092184;28;20073;-71
2020/12/23 01:44:31;;;;;;;16.38;11.35;;;;;;;;;;5073917;28;20478;-71
2020/12/23 01:46:59;;;;;;;15.85;11.07;;;;;;;;;;5091851;28;20031;-71
2020/12/23 01:49:25;;;;;;;17.15;11.70;;;;;;;;;;5091774;28;20097;-71
2020/12/23 01:51:51;;;;;;;15.35;11.10;;;;;;;;;;5073739;28;20146;-71
2020/12/23 01:54:17;;;;;;;16.67;11.35;;;;;;;;;;5091604;28;20024;-71
2020/12/23 01:56:43;;;;;;;16.30;11.20;;;;;;;;;;5091775;28;20018;-70
2020/12/23 01:59:10;;;;;;;16.50;11.35;;;;;;;;;;5073775;28;20106;-71
2020/12/23 02:01:41;;;;;;;17.13;11.25;;;;;;;;;;5091802;28;20028;-71
2020/12/23 02:04:07;;;;;;;16.08;11.23;;;;;;;;;;5090960;28;20027;-70
2020/12/23 02:06:34;;;;;;;14.85;10.70;;;;;;;;;;5073522;28;20024;-69
2020/12/23 02:09:01;;;;;;;16.23;10.85;;;;;;;;;;5073304;28;20081;-69
2020/12/23 02:11:28;;;;;;;14.85;10.68;;;;;;;;;;5092181;28;20028;-70
2020/12/23 02:13:54;;;;;;;17.42;11.07;;;;;;;;;;5073502;28;20388;-71
2020/12/23 02:16:20;;;;;;;15.30;11.07;;;;;;;;;;5073450;28;20016;-70
2020/12/23 02:18:46;;;;;;;14.65;10.57;;;;;;;;;;5073533;28;20024;-70
2020/12/23 02:21:12;;;;;;;17.52;11.25;;;;;;;;;;5091510;28;20027;-70
2020/12/23 02:23:39;;;;;;;15.30;10.27;;;;;;;;;;5091448;28;20020;-71
2020/12/23 02:26:05;;;;;;;13.82;9.70;;;;;;;;;;5073355;28;20086;-70
2020/12/23 02:28:31;;;;;;;17.90;11.40;;;;;;;;;;5091174;28;20032;-71
2020/12/23 02:31:00;;;;;;;16.58;11.27;;;;;;;;;;5091210;28;20115;-71
2020/12/23 02:33:26;;;;;;;15.90;11.02;;;;;;;;;;5073460;28;20024;-70
2020/12/23 02:35:52;;;;;;;15.77;11.25;;;;;;;;;;5091226;28;20020;-70
2020/12/23 02:38:18;;;;;;;17.95;11.32;;;;;;;;;;5091388;28;20467;-69
2020/12/23 02:40:44;;;;;;;15.23;10.93;;;;;;;;;;5091285;28;20069;-70
2020/12/23 02:43:10;;;;;;;16.35;10.90;;;;;;;;;;5091466;28;20020;-69
2020/12/23 02:45:36;;;;;;;16.40;10.40;;;;;;;;;;5105078;28;20382;-71
2020/12/23 02:48:02;;;;;;;14.82;10.60;;;;;;;;;;5110913;28;20107;-71
2020/12/23 02:50:28;;;;;;;19.80;11.90;;;;;;;;;;5111390;28;20031;-71
2020/12/23 02:52:54;;;;;;;18.17;11.63;;;;;;;;;;5111624;28;20100;-72
2020/12/23 02:55:20;;;;;;;14.77;10.50;;;;;;;;;;5093432;28;20027;-71
2020/12/23 02:57:46;;;;;;;15.60;11.73;;;;;;;;;;5093299;28;20026;-70
2020/12/23 03:00:12;;;;;;;16.52;10.80;;;;;;;;;;5111525;28;20051;-71
2020/12/23 03:02:38;;;;;;;15.68;10.70;;;;;;;;;;5111407;28;20020;-71
2020/12/23 03:05:04;;;;;;;16.17;11.23;;;;;;;;;;5093143;28;20026;-70
2020/12/23 03:07:30;;;;;;;15.07;10.13;;;;;;;;;;5111456;28;20088;-71
2020/12/23 03:09:57;;;;;;;13.70;10.60;;;;;;;;;;5111419;28;20034;-70
2020/12/23 03:12:23;;;;;;;17.05;10.88;;;;;;;;;;5111350;28;20130;-70
2020/12/23 03:14:49;;;;;;;14.52;10.75;;;;;;;;;;5094328;28;20118;-70
2020/12/23 03:17:15;;;;;;;18.42;11.10;;;;;;;;;;5096903;28;20393;-71
2020/12/23 03:19:41;;;;;;;18.70;10.65;;;;;;;;;;5115201;28;20024;-72
2020/12/23 03:22:07;;;;;;;16.25;11.55;;;;;;;;;;5096940;28;20024;-71
2020/12/23 03:24:33;;;;;;;14.63;10.85;;;;;;;;;;5096796;28;20019;-71
2020/12/23 03:26:59;;;;;;;14.48;9.93;;;;;;;;;;5096879;28;20127;-71
2020/12/23 03:29:25;;;;;;;17.23;10.25;;;;;;;;;;5117489;27;20053;-73
2020/12/23 03:31:51;;;;;;;45.05;11.52;;;;;;;;;;5129193;27;20077;-71
2020/12/23 03:34:17;;;;;;;37.17;11.23;;;;;;;;;;5113837;28;20012;-71
2020/12/23 03:36:43;;;;;;;22.83;10.50;;;;;;;;;;5114029;28;20024;-71
2020/12/23 03:39:09;;;;;;;17.88;10.80;;;;;;;;;;5110186;28;20023;-71
2020/12/23 03:41:35;;;;;;;15.95;10.98;;;;;;;;;;5112472;28;20042;-70
2020/12/23 03:44:01;;;;;;;16.48;9.80;;;;;;;;;;5113380;28;20038;-70
2020/12/23 03:46:27;;;;;;;14.57;10.00;;;;;;;;;;5113679;28;20153;-72
2020/12/23 03:48:53;;;;;;;27.25;10.57;;;;;;;;;;5113661;28;20044;-68
2020/12/23 03:51:19;;;;;;;38.10;11.65;;;;;;;;;;5114611;28;20020;-71
2020/12/23 03:53:45;;;;;;;30.70;11.40;;;;;;;;;;5113565;28;20026;-71
2020/12/23 03:56:12;;;;;;;20.55;10.40;;;;;;;;;;5114811;28;20020;-70
2020/12/23 03:58:38;;;;;;;15.27;10.27;;;;;;;;;;5115010;28;20471;-70
2020/12/23 04:01:04;;;;;;;19.88;10.07;;;;;;;;;;5114839;28;20028;-69
2020/12/23 04:03:30;;;;;;;14.70;9.77;;;;;;;;;;5114680;28;20023;-70
2020/12/23 04:05:56;;;;;;;15.45;10.27;;;;;;;;;;5114662;28;20022;-70
2020/12/23 04:08:22;;;;;;;16.30;10.30;;;;;;;;;;5114743;28;20054;-73
2020/12/23 04:10:48;;;;;;;15.98;10.27;;;;;;;;;;5096285;28;20036;-73
2020/12/23 04:13:14;;;;;;;21.42;10.45;;;;;;;;;;5114793;28;20054;-72
2020/12/23 04:15:40;;;;;;;14.90;10.05;;;;;;;;;;5114654;28;20138;-71
2020/12/23 04:18:06;;;;;;;26.23;11.50;;;;;;;;;;5096269;28;20019;-75
2020/12/23 04:20:32;;;;;;;18.15;10.30;;;;;;;;;;5096631;28;20328;-75
2020/12/23 04:22:58;;;;;;;16.23;10.60;;;;;;;;;;5114904;28;20047;-74
2020/12/23 04:25:24;;;;;;;15.68;10.30;;;;;;;;;;5114717;28;20020;-74
2020/12/23 04:27:50;;;;;;;16.45;10.38;;;;;;;;;;5095516;28;20016;-75
2020/12/23 04:30:17;;;;;;;14.90;10.27;;;;;;;;;;5096117;28;20038;-72
2020/12/23 04:32:43;;;;;;;15.13;10.10;;;;;;;;;;5114585;28;20024;-74
2020/12/23 04:35:09;;;;;;;13.68;10.10;;;;;;;;;;5096397;28;20023;-75
2020/12/23 04:37:35;;;;;;;14.77;9.85;;;;;;;;;;5114424;28;20080;-74
2020/12/23 04:40:02;;;;;;;15.32;10.40;;;;;;;;;;5114393;28;20384;-72
2020/12/23 04:42:28;;;;;;;15.65;10.77;;;;;;;;;;5114295;28;20020;-74
2020/12/23 04:44:55;;;;;;;13.52;10.13;;;;;;;;;;5096036;28;20035;-71
2020/12/23 04:47:25;;;;;;;13.80;10.40;;;;;;;;;;5114098;28;20505;-73
2020/12/23 04:49:55;;;;;;;14.10;9.85;;;;;;;;;;5095834;28;20036;-74
2020/12/23 04:52:24;;;;;;;13.98;10.02;;;;;;;;;;5114276;28;20094;-74
2020/12/23 04:54:51;;;;;;;15.13;10.35;;;;;;;;;;5095965;28;20024;-74
2020/12/23 04:57:18;;;;;;;14.60;10.15;;;;;;;;;;5113992;28;20107;-74
2020/12/23 04:59:44;;;;;;;15.65;9.88;;;;;;;;;;5113795;28;20014;-73
2020/12/23 05:02:10;;;;;;;17.27;10.68;;;;;;;;;;5113726;28;20027;-74
2020/12/23 05:04:36;;;;;;;14.23;10.25;;;;;;;;;;5113606;28;20012;-74
2020/12/23 05:07:06;;;;;;;18.65;11.20;;;;;;;;;;5113620;28;20024;-74
2020/12/23 05:09:32;;;;;;;16.70;11.13;;;;;;;;;;5113658;28;20123;-74
2020/12/23 05:11:59;;;;;;;15.15;10.65;;;;;;;;;;5113693;28;20072;-75
2020/12/23 05:14:26;;;;;;;14.23;10.13;;;;;;;;;;5113608;28;20095;-77
2020/12/23 05:16:52;;;;;;;16.40;10.45;;;;;;;;;;5113515;28;20600;-74
2020/12/23 05:19:19;;;;;;;12.45;9.43;;;;;;;;;;5113430;28;20024;-74
2020/12/23 05:21:46;;;;;;;13.88;9.85;;;;;;;;;;5113446;28;20347;-74
2020/12/23 05:24:12;;;;;;;14.25;9.98;;;;;;;;;;5113322;28;20092;-74
2020/12/23 05:26:43;;;;;;;14.40;9.90;;;;;;;;;;5113331;28;20095;-74
2020/12/23 05:29:13;;;;;;;16.17;10.95;;;;;;;;;;5113275;28;20028;-74
2020/12/23 05:31:39;;;;;;;16.35;10.50;;;;;;;;;;5113285;28;20112;-74
2020/12/23 05:34:06;;;;;;;15.70;11.10;;;;;;;;;;5094899;28;20055;-74
2020/12/23 05:36:33;;;;;;;16.10;10.32;;;;;;;;;;5094681;28;20157;-74
2020/12/23 05:39:00;;;;;;;13.63;9.80;;;;;;;;;;5112913;28;20482;-74
2020/12/23 05:41:26;;;;;;;15.13;10.45;;;;;;;;;;5094649;28;20114;-72
2020/12/23 05:43:52;;;;;;;16.55;11.27;;;;;;;;;;5113179;28;20039;-74
2020/12/23 05:46:18;;;;;;;14.30;10.30;;;;;;;;;;5094736;28;20558;-74
2020/12/23 05:48:44;;;;;;;14.40;10.20;;;;;;;;;;5112697;28;20566;-72
2020/12/23 05:51:10;;;;;;;16.23;10.63;;;;;;;;;;5112992;28;20034;-70
2020/12/23 05:53:37;;;;;;;13.38;9.68;;;;;;;;;;5112933;28;20069;-74
2020/12/23 05:56:04;;;;;;;14.43;9.75;;;;;;;;;;5094510;28;20377;-74
2020/12/23 05:58:35;;;;;;;13.98;10.43;;;;;;;;;;5112712;28;20028;-74
2020/12/23 06:01:08;;;;;;;15.63;10.13;;;;;;;;;;5112609;28;20023;-71
2020/12/23 06:03:46;;;;;;;14.50;9.35;;;;;;;;;;5094558;28;20031;-73
2020/12/23 06:06:13;;;;;;;14.52;10.52;;;;;;;;;;5094477;28;20023;-71
2020/12/23 06:08:40;;;;;;;15.85;10.27;;;;;;;;;;5112626;28;20521;-74
2020/12/23 06:11:09;;;;;;;15.18;10.20;;;;;;;;;;5094328;28;20579;-74
2020/12/23 06:13:50;;;;;;;13.98;10.15;;;;;;;;;;5112781;28;20042;-74
2020/12/23 06:16:24;;;;;;;13.10;9.40;;;;;;;;;;5112732;28;20111;-72
2020/12/23 06:18:52;;;;;;;15.05;10.07;;;;;;;;;;5112643;28;20024;-70
2020/12/23 06:21:19;;;;;;;13.77;8.95;;;;;;;;;;5094325;28;20028;-71
2020/12/23 06:23:45;;;;;;;13.70;9.95;;;;;;;;;;5112526;28;20108;-73
2020/12/23 06:26:14;;;;;;;13.55;9.43;;;;;;;;;;5112360;28;20019;-73
2020/12/23 06:28:48;;;;;;;14.82;9.88;;;;;;;;;;5112402;28;20030;-73
2020/12/23 06:31:14;;;;;;;16.60;9.65;;;;;;;;;;5112906;28;20031;-71
2020/12/23 06:33:40;;;;;;;13.65;9.75;;;;;;;;;;5112423;28;20058;-71
2020/12/23 06:36:12;;;;;;;15.50;10.55;;;;;;;;;;5112288;28;20065;-71
2020/12/23 06:38:38;;;;;;;14.07;10.20;;;;;;;;;;5112473;28;20079;-71
2020/12/23 06:41:04;;;;;;;13.63;9.95;;;;;;;;;;5112403;28;20478;-71
2020/12/23 06:43:49;;;;;;;13.20;9.70;;;;;;;;;;5112319;28;20104;-72
2020/12/23 06:46:15;;;;;;;15.15;10.25;;;;;;;;;;5112218;28;20022;-71
2020/12/23 06:48:41;;;;;;;14.73;9.90;;;;;;;;;;5112139;28;20054;-71
2020/12/23 06:51:07;;;;;;;15.15;10.32;;;;;;;;;;5115615;28;20078;-70
2020/12/23 06:53:36;;;;;;;13.98;9.32;;;;;;;;;;5116317;28;20046;-71
2020/12/23 06:56:02;;;;;;;13.95;9.75;;;;;;;;;;5116138;28;20033;-72
2020/12/23 06:58:39;;;;;;;14.20;9.63;;;;;;;;;;5116050;28;20016;-73
2020/12/23 07:01:20;;;;;;;14.63;9.95;;;;;;;;;;5116021;28;20051;-72
2020/12/23 07:03:47;;;;;;;13.65;9.52;;;;;;;;;;5116138;28;20099;-75
2020/12/23 07:06:33;;;;;;;15.40;10.35;;;;;;;;;;5097728;28;20020;-74
2020/12/23 07:09:03;;;;;;;17.25;10.10;;;;;;;;;;5115865;28;20068;-75
2020/12/23 07:11:32;;;;;;;16.08;10.18;;;;;;;;;;5097658;28;20020;-71
2020/12/23 07:13:58;;;;;;;14.35;10.10;;;;;;;;;;5097649;28;20028;-75
2020/12/23 07:16:25;;;;;;;13.15;9.57;;;;;;;;;;5115884;28;20023;-75
2020/12/23 07:18:53;;;;;;;16.08;10.35;;;;;;;;;;5097628;28;20023;-75
2020/12/23 07:21:26;;;;;;;13.73;10.23;;;;;;;;;;5097467;28;20126;-74
2020/12/23 07:23:54;;;;;;;14.85;10.20;;;;;;;;;;5097606;28;20015;-74
2020/12/23 07:26:21;;;;;;;15.43;10.65;;;;;;;;;;5115675;28;20027;-71
2020/12/23 07:28:48;;;;;;;14.93;10.55;;;;;;;;;;5115450;28;20023;-75
2020/12/23 07:31:14;;;;;;;14.73;10.07;;;;;;;;;;5115436;28;20382;-71
2020/12/23 07:33:40;;;;;;;14.43;10.20;;;;;;;;;;5115450;28;20091;-69
2020/12/23 07:36:07;;;;;;;15.40;10.85;;;;;;;;;;5097131;28;20019;-73
2020/12/23 07:38:34;;;;;;;17.23;11.82;;;;;;;;;;5097128;28;20045;-73
2020/12/23 07:41:01;;;;;;;15.43;10.63;;;;;;;;;;5097413;28;20352;-71
2020/12/23 07:43:27;;;;;;;16.10;11.15;;;;;;;;;;5115219;28;20035;-72
2020/12/23 07:45:53;;;;;;;14.32;10.60;;;;;;;;;;5115158;28;20015;-73
2020/12/23 07:48:21;;;;;;;16.77;11.65;;;;;;;;;;5115264;28;20489;-70
2020/12/23 07:50:47;;;;;;;15.93;11.20;;;;;;;;;;5115223;28;20609;-71
2020/12/23 07:53:20;;;;;;;17.75;10.85;;;;;;;;;;5115351;28;20036;-71
2020/12/23 07:55:47;;;;;;;15.65;11.65;;;;;;;;;;5115217;28;20020;-71
2020/12/23 07:58:13;;;;;;;18.55;11.57;;;;;;;;;;5115199;28;20020;-72
2020/12/23 08:00:40;;;;;;;18.52;11.45;;;;;;;;;;5114464;28;20101;-71
2020/12/23 08:03:06;;;;;;;18.92;11.90;;;;;;;;;;5096371;28;20020;-72
2020/12/23 08:05:32;;;;;;;14.18;11.07;;;;;;;;;;5115051;28;20110;-71
2020/12/23 08:07:59;;;;;;;15.32;10.27;;;;;;;;;;5115099;28;20057;-70
2020/12/23 08:10:25;;;;;;;15.18;10.82;;;;;;;;;;5115017;28;20084;-71
2020/12/23 08:12:58;;;;;;;16.50;11.85;;;;;;;;;;5115033;28;20015;-70
2020/12/23 08:15:24;;;;;;;15.77;10.95;;;;;;;;;;5096710;28;20027;-71
2020/12/23 08:18:06;;;;;;;17.60;12.13;;;;;;;;;;5114873;28;20027;-71
2020/12/23 08:20:33;;;;;;;15.15;11.18;;;;;;;;;;5114913;28;20092;-71
2020/12/23 08:22:59;;;;;;;17.70;11.80;;;;;;;;;;5114698;28;20020;-71
2020/12/23 08:25:26;;;;;;;19.08;11.68;;;;;;;;;;5096333;28;20050;-72
2020/12/23 08:27:54;;;;;;;16.27;10.80;;;;;;;;;;5114814;28;20028;-71
2020/12/23 08:30:21;;;;;;;17.67;11.10;;;;;;;;;;5114494;28;20114;-74
2020/12/23 08:32:53;;;;;;;17.35;12.00;;;;;;;;;;5114552;28;20027;-74
2020/12/23 08:35:19;;;;;;;16.35;11.63;;;;;;;;;;5114283;28;20015;-74
2020/12/23 08:37:45;;;;;;;19.38;12.40;;;;;;;;;;5114294;28;20015;-72
2020/12/23 08:40:14;;;;;;;18.02;11.98;;;;;;;;;;5114348;28;20019;-72
2020/12/23 08:42:50;;;;;;;15.85;11.27;;;;;;;;;;5114417;28;20018;-72
2020/12/23 08:45:21;;;;;;;16.48;11.23;;;;;;;;;;5096006;28;20031;-71
2020/12/23 08:47:47;;;;;;;18.73;12.07;;;;;;;;;;5114130;28;20047;-72
2020/12/23 08:50:15;;;;;;;21.77;11.63;;;;;;;;;;5114389;28;20058;-68
2020/12/23 08:52:45;;;;;;;25.58;12.95;;;;;;;;;;5115132;28;20065;-69
2020/12/23 08:55:19;;;;;;;20.30;11.60;;;;;;;;;;5113964;28;20106;-69
2020/12/23 08:57:45;;;;;;;16.05;11.18;;;;;;;;;;5096856;28;20378;-68
2020/12/23 09:00:21;;;;;;;16.48;11.48;;;;;;;;;;5112209;28;20034;-67
2020/12/23 09:02:48;;;;;;;16.42;11.05;;;;;;;;;;5103535;28;20102;-69
2020/12/23 09:05:24;;;;;;;19.33;11.63;;;;;;;;;;5074462;28;20039;-68
2020/12/23 09:08:03;;;;;;;17.10;10.85;;;;;;;;;;5107910;28;20016;-68
2020/12/23 09:10:29;;;;;;;17.67;11.18;;;;;;;;;;5113032;28;20024;-68
2020/12/23 09:13:05;;;;;;;16.38;10.73;;;;;;;;;;5112687;28;20019;-69
2020/12/23 09:15:32;;;;;;;19.35;10.68;;;;;;;;;;5112905;28;20229;-69
2020/12/23 09:18:07;;;;;;;17.35;11.45;;;;;;;;;;5112901;28;20016;-68
2020/12/23 09:20:35;;;;;;;16.67;12.07;;;;;;;;;;5074562;28;20020;-68
2020/12/23 09:23:02;;;;;;;16.58;11.77;;;;;;;;;;5074293;28;20028;-69
2020/12/23 09:25:30;;;;;;;15.85;10.73;;;;;;;;;;5092328;28;20016;-68
2020/12/23 09:27:57;;;;;;;17.90;10.93;;;;;;;;;;5074269;28;20029;-68
2020/12/23 09:30:30;;;;;;;14.02;10.30;;;;;;;;;;5092281;28;20158;-68
2020/12/23 09:32:56;;;;;;;13.75;10.23;;;;;;;;;;5092300;28;20020;-69
2020/12/23 09:35:24;;;;;;;16.23;10.07;;;;;;;;;;5073861;28;20498;-67
2020/12/23 09:37:50;;;;;;;16.92;10.05;;;;;;;;;;5073868;28;20537;-66
2020/12/23 09:40:17;;;;;;;17.30;9.80;;;;;;;;;;5092192;28;20205;-70
2020/12/23 09:42:43;;;;;;;17.10;10.23;;;;;;;;;;5092012;28;20387;-69
2020/12/23 09:45:11;;;;;;;19.35;10.30;;;;;;;;;;5105753;28;20034;-68
2020/12/23 09:47:41;;;;;;;14.10;9.93;;;;;;;;;;5112164;28;20032;-69
2020/12/23 09:50:07;;;;;;;16.08;10.10;;;;;;;;;;5112353;28;20031;-68
2020/12/23 09:52:35;;;;;;;19.30;10.27;;;;;;;;;;5094081;28;20054;-68
2020/12/23 09:55:01;;;;;;;14.93;9.63;;;;;;;;;;5111786;28;20030;-67
2020/12/23 09:57:27;;;;;;;13.13;9.23;;;;;;;;;;5093787;28;20023;-68
2020/12/23 09:59:53;;;;;;;15.95;9.10;;;;;;;;;;5093871;28;20026;-68
2020/12/23 10:02:19;;;;;;;16.52;9.80;;;;;;;;;;5093990;28;20073;-68
2020/12/23 10:04:45;;;;;;;17.42;11.38;;;;;;;;;;5092999;28;20293;-68
2020/12/23 10:07:11;;;;;;;14.55;9.57;;;;;;;;;;5110681;28;20027;-68
2020/12/23 10:09:37;;;;;;;14.32;8.95;;;;;;;;;;5074972;28;20032;-68
2020/12/23 10:12:03;;;;;;;15.98;9.55;;;;;;;;;;5093750;28;20103;-69
2020/12/23 10:14:29;;;;;;;17.23;9.70;;;;;;;;;;5100678;28;20348;-68
2020/12/23 10:16:55;;;;;;;14.98;9.30;;;;;;;;;;5073467;28;20016;-68
2020/12/23 10:19:21;;;;;;;15.45;9.98;;;;;;;;;;5073610;28;20020;-69
2020/12/23 10:21:48;;;;;;;21.58;9.05;;;;;;;;;;5091714;28;20024;-69
2020/12/23 10:24:14;;;;;;;13.88;8.85;;;;;;;;;;5090394;28;20027;-69
2020/12/23 10:26:40;;;;;;;14.05;8.85;;;;;;;;;;5091331;28;20515;-70
2020/12/23 10:29:08;;;;;;;13.00;9.18;;;;;;;;;;5091265;28;20050;-67
2020/12/23 10:31:34;;;;;;;17.45;9.23;;;;;;;;;;5091411;28;20058;-69
2020/12/23 10:34:00;;;;;;;13.98;8.30;;;;;;;;;;5089964;28;20024;-70
2020/12/23 10:36:26;;;;;;;12.93;8.70;;;;;;;;;;5110731;28;20028;-70
2020/12/23 10:38:52;;;;;;;16.35;8.88;;;;;;;;;;5111476;28;20106;-70
2020/12/23 10:41:18;;;;;;;12.02;8.20;;;;;;;;;;5111484;28;20019;-68
2020/12/23 10:43:44;;;;;;;16.67;9.00;;;;;;;;;;5111634;28;20167;-69
2020/12/23 10:46:10;;;;;;;13.50;9.43;;;;;;;;;;5111408;28;20030;-68
2020/12/23 10:48:36;;;;;;;15.77;9.35;;;;;;;;;;5111316;28;20044;-68
2020/12/23 10:51:06;;;;;;;15.35;9.73;;;;;;;;;;5111271;28;20118;-69
2020/12/23 10:53:32;;;;;;;13.70;8.60;;;;;;;;;;5111587;28;20053;-71
2020/12/23 10:55:58;;;;;;;15.85;9.68;;;;;;;;;;5111317;28;20051;-71
2020/12/23 10:58:24;;;;;;;14.10;8.88;;;;;;;;;;5111607;28;20466;-71
2020/12/23 11:00:50;;;;;;;14.63;8.93;;;;;;;;;;5093238;28;20024;-70
2020/12/23 11:03:16;;;;;;;22.58;11.77;;;;;;;;;;5111612;28;20020;-69
2020/12/23 11:05:42;;;;;;;18.48;9.38;;;;;;;;;;5111428;28;20059;-70
2020/12/23 11:08:08;;;;;;;13.35;8.18;;;;;;;;;;5111418;28;20020;-70
2020/12/23 11:10:34;;;;;;;14.07;9.90;;;;;;;;;;5092930;28;20032;-70
2020/12/23 11:13:00;;;;;;;18.05;10.00;;;;;;;;;;5111625;28;20031;-71
2020/12/23 11:15:26;;;;;;;18.73;9.77;;;;;;;;;;5111350;28;20028;-71
2020/12/23 11:17:52;;;;;;;14.13;9.27;;;;;;;;;;5093134;28;20122;-71
2020/12/23 11:20:19;;;;;;;12.45;8.80;;;;;;;;;;5111416;28;20088;-71
2020/12/23 11:22:45;;;;;;;17.42;9.38;;;;;;;;;;5111430;28;20077;-71
2020/12/23 11:25:11;;;;;;;14.73;9.10;;;;;;;;;;5111199;28;20034;-71
2020/12/23 11:27:37;;;;;;;12.57;8.32;;;;;;;;;;5111023;28;20035;-70
2020/12/23 11:30:03;;;;;;;15.10;8.65;;;;;;;;;;5110453;28;20039;-71
2020/12/23 11:32:29;;;;;;;13.20;8.52;;;;;;;;;;5109866;28;20024;-71
2020/12/23 11:34:55;;;;;;;12.88;8.80;;;;;;;;;;5111070;28;20128;-71
2020/12/23 11:37:21;;;;;;;35.65;8.55;;;;;;;;;;5114558;28;20024;-71
2020/12/23 11:39:47;;;;;;;16.05;9.25;;;;;;;;;;5114622;28;20024;-71
2020/12/23 11:42:14;;;;;;;12.52;9.05;;;;;;;;;;5096468;28;20051;-70
2020/12/23 11:44:40;;;;;;;14.25;9.25;;;;;;;;;;5113839;28;20016;-70
2020/12/23 11:47:06;;;;;;;18.25;8.50;;;;;;;;;;5114101;28;20038;-71
2020/12/23 11:49:32;;;;;;;14.57;8.40;;;;;;;;;;5113900;28;20034;-71
2020/12/23 11:51:58;;;;;;;14.40;8.52;;;;;;;;;;5114384;28;20084;-71
2020/12/23 11:54:24;;;;;;;11.77;7.78;;;;;;;;;;5113987;28;20011;-71
2020/12/23 11:56:50;;;;;;;12.35;8.10;;;;;;;;;;5113886;28;20053;-71
2020/12/23 11:59:17;;;;;;;14.52;8.57;;;;;;;;;;5114409;28;20564;-70
2020/12/23 12:01:43;;;;;;;14.55;8.13;;;;;;;;;;5096031;28;20114;-71
2020/12/23 12:04:11;;;;;;;15.80;8.90;;;;;;;;;;5096000;28;20045;-76
2020/12/23 12:06:37;;;;;;;13.57;8.38;;;;;;;;;;5114290;28;20019;-68
2020/12/23 12:09:03;;;;;;;12.07;7.95;;;;;;;;;;5114156;28;20459;-68
2020/12/23 12:11:29;;;;;;;12.13;7.95;;;;;;;;;;5114173;28;20186;-69
2020/12/23 12:13:56;;;;;;;14.20;8.65;;;;;;;;;;5114133;28;20015;-69
2020/12/23 12:16:22;;;;;;;23.65;10.00;;;;;;;;;;5114055;28;20020;-70
2020/12/23 12:18:49;;;;;;;17.67;9.55;;;;;;;;;;5114086;28;20478;-70
2020/12/23 12:21:15;;;;;;;16.88;9.63;;;;;;;;;;5113959;28;20028;-69
2020/12/23 12:23:41;;;;;;;19.98;9.82;;;;;;;;;;5113783;28;20081;-70
2020/12/23 12:26:08;;;;;;;32.22;10.70;;;;;;;;;;5113919;28;20066;-69
2020/12/23 12:28:34;;;;;;;78.35;12.75;;;;;;;;;;5113905;28;20026;-68
2020/12/23 12:31:00;;;;;;;61.28;11.85;;;;;;;;;;5095584;28;20032;-70
2020/12/23 12:33:26;;;;;;;31.75;10.57;;;;;;;;;;5114305;27;20077;-69
2020/12/23 12:35:52;;;;;;;36.17;11.15;;;;;;;;;;5095460;28;20076;-69
2020/12/23 12:38:18;;;;;;;33.15;10.65;;;;;;;;;;5113450;28;20054;-72
2020/12/23 12:40:44;;;;;;;41.50;12.07;;;;;;;;;;5095139;28;20019;-69
2020/12/23 12:43:10;;;;;;;35.63;12.52;;;;;;;;;;5095295;28;20095;-70
2020/12/23 12:45:36;;;;;;;22.08;12.40;;;;;;;;;;5094958;28;20016;-69
2020/12/23 12:48:02;;;;;;;30.73;10.23;;;;;;;;;;5090814;28;20136;-69
2020/12/23 12:50:28;;;;;;;29.63;11.73;;;;;;;;;;5092729;28;20042;-68
2020/12/23 12:52:55;;;;;;;20.30;12.20;;;;;;;;;;5091634;28;20090;-69
2020/12/23 12:55:21;;;;;;;23.52;11.57;;;;;;;;;;5092676;28;20016;-69
2020/12/23 12:57:47;;;;;;;24.20;10.40;;;;;;;;;;5091124;28;20111;-69
2020/12/23 13:00:13;;;;;;;23.50;11.38;;;;;;;;;;5092023;28;20039;-73
2020/12/23 13:02:39;;;;;;;23.45;11.70;;;;;;;;;;5092094;28;20017;-71
2020/12/23 13:05:05;;;;;;;21.00;10.65;;;;;;;;;;5092693;28;20028;-68
2020/12/23 13:07:32;;;;;;;28.63;11.60;;;;;;;;;;5092680;28;20008;-69
2020/12/23 13:09:58;;;;;;;24.38;11.23;;;;;;;;;;5091482;28;20056;-71
2020/12/23 13:12:25;;;;;;;21.02;12.10;;;;;;;;;;5092658;28;20068;-71
2020/12/23 13:14:51;;;;;;;23.30;13.63;;;;;;;;;;5092661;28;20487;-72
2020/12/23 13:17:17;;;;;;;22.08;11.35;;;;;;;;;;5092649;28;20035;-71
2020/12/23 13:19:43;;;;;;;22.17;12.68;;;;;;;;;;5090965;28;20032;-71
2020/12/23 13:22:09;;;;;;;23.20;13.95;;;;;;;;;;5092124;28;20360;-72
2020/12/23 13:24:35;;;;;;;19.25;12.95;;;;;;;;;;5092458;28;20031;-72
2020/12/23 13:27:02;;;;;;;23.17;13.60;;;;;;;;;;5091129;28;20471;-72
2020/12/23 13:29:28;;;;;;;20.45;11.52;;;;;;;;;;5092359;28;20036;-72
2020/12/23 13:31:54;;;;;;;18.77;11.80;;;;;;;;;;5092251;28;20066;-73
2020/12/23 13:34:20;;;;;;;18.90;12.18;;;;;;;;;;5092424;28;20087;-71
2020/12/23 13:36:46;;;;;;;19.33;11.73;;;;;;;;;;5096545;28;20027;-72
2020/12/23 13:39:12;;;;;;;17.50;11.38;;;;;;;;;;5093674;28;20020;-72
2020/12/23 13:41:38;;;;;;;19.30;12.02;;;;;;;;;;5090870;28;20036;-69
2020/12/23 13:44:05;;;;;;;20.95;11.70;;;;;;;;;;5092125;28;20095;-70
2020/12/23 13:46:31;;;;;;;23.13;12.45;;;;;;;;;;5092045;28;20016;-70
2020/12/23 13:48:58;;;;;;;19.60;10.95;;;;;;;;;;5109638;28;20521;-70
2020/12/23 13:51:24;;;;;;;19.73;11.00;;;;;;;;;;5112351;28;20079;-69
2020/12/23 13:53:50;;;;;;;16.35;9.93;;;;;;;;;;5112119;28;20497;-69
2020/12/23 13:56:17;;;;;;;20.60;12.82;;;;;;;;;;5111975;28;20023;-69
2020/12/23 13:58:43;;;;;;;18.80;10.82;;;;;;;;;;5094085;28;20043;-69
2020/12/23 14:01:10;;;;;;;22.80;13.98;;;;;;;;;;5112190;28;20016;-70
2020/12/23 14:03:38;;;;;;;17.85;12.25;;;;;;;;;;5093543;28;20062;-69
2020/12/23 14:06:04;;;;;;;20.05;11.82;;;;;;;;;;5112077;28;20016;-70
2020/12/23 14:08:30;;;;;;;20.17;10.48;;;;;;;;;;5094199;27;20383;-68
2020/12/23 14:10:56;;;;;;;17.73;11.73;;;;;;;;;;5113875;27;20031;-67
2020/12/23 14:16:58;;;;;;;12.80;8.05;;;;;;;;;;5129647;27;20352;-71
2020/12/23 14:19:24;;;;;;;16.33;8.55;;;;;;;;;;5128543;28;20026;-70
2020/12/23 14:21:50;;;;;;;15.32;8.27;;;;;;;;;;5110161;28;20368;-70
2020/12/23 14:24:17;;;;;;;17.50;8.50;;;;;;;;;;5128551;28;20022;-70